Search for airport 
image banner adimage banner adimage banner ad
image banner ad

CN67 - Rotorcraft Support Inc/Rsi

Located in Fillmore, United States

ICAO - CN67, IATA -

Data provided by Airmate  

General information

Coordinates: N34°23'28" W118°55'59"
Elevation is 403 feet MSL.
 
View others Airports in California

Operational data

Special qualification required
Current time UTC:
Current local time:
Weather at : KCMA - Camarillo ( 25 km )
METAR: KCMA 240855Z AUTO 16004KT 10SM CLR 17/12 A2999 RMK AO2 SLP162 T01670122 58002
TAF: KCMA 240559Z 2406/2506 25006KT P6SM SKC FM240800 VRB03KT P6SM BKN007 FM241600 23004KT P6SM BKN010 FM241900 24010KT P6SM FEW015 FM250400 26008KT P6SM SKC
View NOTAMs / SUP AIP / TFR affecting this airport [VIEW]
Communications frequencies: [VIEW]

Runways:

Airport contact information

Address: Fillmore United States

Satellite view of CN67